sensor_id;sensor_type;location;lat;lon;timestamp;temperature;humidity
70074;DHT22;57445;51.058;3.698;2023-03-16T00:02:27;9.10;96.60
70074;DHT22;57445;51.058;3.698;2023-03-16T00:04:59;9.10;97.50
70074;DHT22;57445;51.058;3.698;2023-03-16T00:07:27;9.10;96.90
70074;DHT22;57445;51.058;3.698;2023-03-16T00:09:59;9.00;97.10
70074;DHT22;57445;51.058;3.698;2023-03-16T00:12:28;8.90;97.80
70074;DHT22;57445;51.058;3.698;2023-03-16T00:15:00;9.10;97.40
70074;DHT22;57445;51.058;3.698;2023-03-16T00:17:34;8.90;97.70
70074;DHT22;57445;51.058;3.698;2023-03-16T00:20:02;8.50;99.10
70074;DHT22;57445;51.058;3.698;2023-03-16T00:22:36;8.70;98.90
70074;DHT22;57445;51.058;3.698;2023-03-16T00:25:10;8.70;98.50
70074;DHT22;57445;51.058;3.698;2023-03-16T00:27:41;8.60;99.10
70074;DHT22;57445;51.058;3.698;2023-03-16T00:30:10;8.70;99.00
70074;DHT22;57445;51.058;3.698;2023-03-16T00:32:45;8.50;99.30
70074;DHT22;57445;51.058;3.698;2023-03-16T00:35:17;8.70;99.10
70074;DHT22;57445;51.058;3.698;2023-03-16T00:37:49;8.90;99.10
70074;DHT22;57445;51.058;3.698;2023-03-16T00:40:21;9.00;98.60
70074;DHT22;57445;51.058;3.698;2023-03-16T00:42:55;8.90;98.70
70074;DHT22;57445;51.058;3.698;2023-03-16T00:45:27;8.80;99.00
70074;DHT22;57445;51.058;3.698;2023-03-16T00:47:59;8.70;99.60
70074;DHT22;57445;51.058;3.698;2023-03-16T00:50:31;8.80;99.30
70074;DHT22;57445;51.058;3.698;2023-03-16T00:52:59;8.70;99.60
70074;DHT22;57445;51.058;3.698;2023-03-16T00:55:31;8.70;99.50
70074;DHT22;57445;51.058;3.698;2023-03-16T00:58:00;8.90;99.00
70074;DHT22;57445;51.058;3.698;2023-03-16T01:00:35;8.60;99.90
70074;DHT22;57445;51.058;3.698;2023-03-16T01:03:07;8.50;99.90
70074;DHT22;57445;51.058;3.698;2023-03-16T01:05:40;8.70;99.90
70074;DHT22;57445;51.058;3.698;2023-03-16T01:08:08;8.90;99.20
70074;DHT22;57445;51.058;3.698;2023-03-16T01:10:35;9.10;99.30
70074;DHT22;57445;51.058;3.698;2023-03-16T01:13:04;8.70;99.90
70074;DHT22;57445;51.058;3.698;2023-03-16T01:15:37;8.70;99.90
70074;DHT22;57445;51.058;3.698;2023-03-16T01:18:09;8.60;99.90
70074;DHT22;57445;51.058;3.698;2023-03-16T01:20:43;8.70;99.90
70074;DHT22;57445;51.058;3.698;2023-03-16T01:23:21;8.70;99.80
70074;DHT22;57445;51.058;3.698;2023-03-16T01:25:49;8.30;99.90
70074;DHT22;57445;51.058;3.698;2023-03-16T01:28:27;8.50;99.90
70074;DHT22;57445;51.058;3.698;2023-03-16T01:30:58;8.60;99.90
70074;DHT22;57445;51.058;3.698;2023-03-16T01:33:27;8.70;99.90
70074;DHT22;57445;51.058;3.698;2023-03-16T01:36:01;8.50;99.90
70074;DHT22;57445;51.058;3.698;2023-03-16T01:38:29;8.60;99.90
70074;DHT22;57445;51.058;3.698;2023-03-16T01:41:03;8.40;99.90
70074;DHT22;57445;51.058;3.698;2023-03-16T01:43:34;8.50;99.90
70074;DHT22;57445;51.058;3.698;2023-03-16T01:46:16;8.60;99.90
70074;DHT22;57445;51.058;3.698;2023-03-16T01:49:01;8.50;99.90
70074;DHT22;57445;51.058;3.698;2023-03-16T01:51:39;8.40;99.90
70074;DHT22;57445;51.058;3.698;2023-03-16T01:54:19;8.30;99.90
70074;DHT22;57445;51.058;3.698;2023-03-16T01:56:59;8.50;99.90
70074;DHT22;57445;51.058;3.698;2023-03-16T01:59:32;8.40;99.90
70074;DHT22;57445;51.058;3.698;2023-03-16T02:02:01;8.50;99.90
70074;DHT22;57445;51.058;3.698;2023-03-16T02:04:37;8.50;99.90
70074;DHT22;57445;51.058;3.698;2023-03-16T02:07:07;8.50;99.90
70074;DHT22;57445;51.058;3.698;2023-03-16T02:09:42;8.40;99.90
70074;DHT22;57445;51.058;3.698;2023-03-16T02:12:17;8.40;99.90
70074;DHT22;57445;51.058;3.698;2023-03-16T02:14:51;8.70;99.90
70074;DHT22;57445;51.058;3.698;2023-03-16T02:17:22;8.70;99.90
70074;DHT22;57445;51.058;3.698;2023-03-16T02:20:02;8.60;99.90
70074;DHT22;57445;51.058;3.698;2023-03-16T02:22:35;8.60;99.90
70074;DHT22;57445;51.058;3.698;2023-03-16T02:25:09;8.50;99.90
70074;DHT22;57445;51.058;3.698;2023-03-16T02:27:47;8.50;99.90
70074;DHT22;57445;51.058;3.698;2023-03-16T02:30:24;8.50;99.90
70074;DHT22;57445;51.058;3.698;2023-03-16T02:32:53;8.60;99.90
70074;DHT22;57445;51.058;3.698;2023-03-16T02:35:26;8.80;99.90
70074;DHT22;57445;51.058;3.698;2023-03-16T02:37:59;8.60;99.90
70074;DHT22;57445;51.058;3.698;2023-03-16T02:40:28;8.70;99.90
70074;DHT22;57445;51.058;3.698;2023-03-16T02:43:04;8.60;99.90
70074;DHT22;57445;51.058;3.698;2023-03-16T02:45:42;8.40;99.90
70074;DHT22;57445;51.058;3.698;2023-03-16T02:48:19;8.20;99.90
70074;DHT22;57445;51.058;3.698;2023-03-16T02:50:52;8.30;99.90
70074;DHT22;57445;51.058;3.698;2023-03-16T02:53:25;8.20;99.90
70074;DHT22;57445;51.058;3.698;2023-03-16T02:55:53;8.10;99.90
70074;DHT22;57445;51.058;3.698;2023-03-16T02:58:25;8.10;99.90
70074;DHT22;57445;51.058;3.698;2023-03-16T03:00:55;8.20;99.90
70074;DHT22;57445;51.058;3.698;2023-03-16T03:03:23;8.10;99.90
70074;DHT22;57445;51.058;3.698;2023-03-16T03:05:50;8.00;99.90
70074;DHT22;57445;51.058;3.698;2023-03-16T03:08:18;8.20;99.90
70074;DHT22;57445;51.058;3.698;2023-03-16T03:10:47;8.40;99.90
70074;DHT22;57445;51.058;3.698;2023-03-16T03:13:19;8.50;99.90
70074;DHT22;57445;51.058;3.698;2023-03-16T03:15:47;8.50;99.90
70074;DHT22;57445;51.058;3.698;2023-03-16T03:18:16;8.60;99.90
70074;DHT22;57445;51.058;3.698;2023-03-16T03:20:44;8.80;99.90
70074;DHT22;57445;51.058;3.698;2023-03-16T03:23:12;8.70;99.90
70074;DHT22;57445;51.058;3.698;2023-03-16T03:25:40;8.50;99.90
70074;DHT22;57445;51.058;3.698;2023-03-16T03:28:08;8.50;99.90
70074;DHT22;57445;51.058;3.698;2023-03-16T03:30:36;8.60;99.90
70074;DHT22;57445;51.058;3.698;2023-03-16T03:33:04;8.80;99.90
70074;DHT22;57445;51.058;3.698;2023-03-16T03:35:38;8.60;99.90
70074;DHT22;57445;51.058;3.698;2023-03-16T03:38:11;8.50;99.90
70074;DHT22;57445;51.058;3.698;2023-03-16T03:40:43;8.60;99.90
70074;DHT22;57445;51.058;3.698;2023-03-16T03:43:16;8.50;99.90
70074;DHT22;57445;51.058;3.698;2023-03-16T03:45:48;8.30;99.90
70074;DHT22;57445;51.058;3.698;2023-03-16T03:48:15;8.40;99.90
70074;DHT22;57445;51.058;3.698;2023-03-16T03:50:45;8.40;99.90
70074;DHT22;57445;51.058;3.698;2023-03-16T03:53:16;8.30;99.90
70074;DHT22;57445;51.058;3.698;2023-03-16T03:55:44;8.50;99.90
70074;DHT22;57445;51.058;3.698;2023-03-16T03:58:12;8.30;99.90
70074;DHT22;57445;51.058;3.698;2023-03-16T04:00:40;8.40;99.90
70074;DHT22;57445;51.058;3.698;2023-03-16T04:03:08;8.40;99.90
70074;DHT22;57445;51.058;3.698;2023-03-16T04:05:40;8.30;99.90
70074;DHT22;57445;51.058;3.698;2023-03-16T04:08:13;8.30;99.90
70074;DHT22;57445;51.058;3.698;2023-03-16T04:10:41;8.30;99.90
70074;DHT22;57445;51.058;3.698;2023-03-16T04:13:09;8.20;99.90
70074;DHT22;57445;51.058;3.698;2023-03-16T04:15:41;8.30;99.90
70074;DHT22;57445;51.058;3.698;2023-03-16T04:18:16;8.40;99.90
70074;DHT22;57445;51.058;3.698;2023-03-16T04:20:48;8.50;99.50
70074;DHT22;57445;51.058;3.698;2023-03-16T04:23:24;8.40;99.60
70074;DHT22;57445;51.058;3.698;2023-03-16T04:25:52;8.60;99.00
70074;DHT22;57445;51.058;3.698;2023-03-16T04:28:20;8.50;99.30
70074;DHT22;57445;51.058;3.698;2023-03-16T04:30:47;8.50;99.20
70074;DHT22;57445;51.058;3.698;2023-03-16T04:33:19;8.30;99.30
70074;DHT22;57445;51.058;3.698;2023-03-16T04:35:47;8.30;99.50
70074;DHT22;57445;51.058;3.698;2023-03-16T04:38:15;8.40;99.20
70074;DHT22;57445;51.058;3.698;2023-03-16T04:40:44;8.30;99.70
70074;DHT22;57445;51.058;3.698;2023-03-16T04:43:12;8.20;99.50
70074;DHT22;57445;51.058;3.698;2023-03-16T04:45:39;8.20;99.90
70074;DHT22;57445;51.058;3.698;2023-03-16T04:48:07;8.30;99.30
70074;DHT22;57445;51.058;3.698;2023-03-16T04:50:35;8.60;98.50
70074;DHT22;57445;51.058;3.698;2023-03-16T04:53:07;8.70;97.70
70074;DHT22;57445;51.058;3.698;2023-03-16T04:55:40;8.70;97.70
70074;DHT22;57445;51.058;3.698;2023-03-16T04:58:09;8.50;97.50
70074;DHT22;57445;51.058;3.698;2023-03-16T05:00:38;8.30;97.90
70074;DHT22;57445;51.058;3.698;2023-03-16T05:03:07;8.30;98.10
70074;DHT22;57445;51.058;3.698;2023-03-16T05:05:36;8.50;97.20
70074;DHT22;57445;51.058;3.698;2023-03-16T05:08:04;8.40;97.40
70074;DHT22;57445;51.058;3.698;2023-03-16T05:10:36;8.40;96.90
70074;DHT22;57445;51.058;3.698;2023-03-16T05:13:12;8.40;97.10
70074;DHT22;57445;51.058;3.698;2023-03-16T05:15:40;8.50;96.80
70074;DHT22;57445;51.058;3.698;2023-03-16T05:18:08;8.60;96.90
70074;DHT22;57445;51.058;3.698;2023-03-16T05:20:41;8.60;96.40
70074;DHT22;57445;51.058;3.698;2023-03-16T05:23:13;8.50;96.20
70074;DHT22;57445;51.058;3.698;2023-03-16T05:25:41;8.60;96.00
70074;DHT22;57445;51.058;3.698;2023-03-16T05:28:15;8.50;96.60
70074;DHT22;57445;51.058;3.698;2023-03-16T05:30:43;8.90;95.80
70074;DHT22;57445;51.058;3.698;2023-03-16T05:33:11;8.90;95.50
70074;DHT22;57445;51.058;3.698;2023-03-16T05:35:39;8.80;95.20
70074;DHT22;57445;51.058;3.698;2023-03-16T05:38:08;8.60;95.60
70074;DHT22;57445;51.058;3.698;2023-03-16T05:40:36;8.50;96.00
70074;DHT22;57445;51.058;3.698;2023-03-16T05:43:04;8.60;95.90
70074;DHT22;57445;51.058;3.698;2023-03-16T05:45:37;8.60;95.90
70074;DHT22;57445;51.058;3.698;2023-03-16T05:48:09;8.50;95.80
70074;DHT22;57445;51.058;3.698;2023-03-16T05:50:41;8.60;95.90
70074;DHT22;57445;51.058;3.698;2023-03-16T05:53:09;8.60;95.70
70074;DHT22;57445;51.058;3.698;2023-03-16T05:55:41;8.30;96.30
70074;DHT22;57445;51.058;3.698;2023-03-16T05:58:13;8.40;96.20
70074;DHT22;57445;51.058;3.698;2023-03-16T06:00:43;8.50;95.40
70074;DHT22;57445;51.058;3.698;2023-03-16T06:03:15;8.60;95.50
70074;DHT22;57445;51.058;3.698;2023-03-16T06:05:48;8.50;95.60
70074;DHT22;57445;51.058;3.698;2023-03-16T06:08:15;8.60;95.60
70074;DHT22;57445;51.058;3.698;2023-03-16T06:10:45;8.40;95.50
70074;DHT22;57445;51.058;3.698;2023-03-16T06:13:13;8.50;95.30
70074;DHT22;57445;51.058;3.698;2023-03-16T06:15:46;8.30;96.00
70074;DHT22;57445;51.058;3.698;2023-03-16T06:18:14;8.60;95.20
70074;DHT22;57445;51.058;3.698;2023-03-16T06:20:42;8.50;95.60
70074;DHT22;57445;51.058;3.698;2023-03-16T06:23:16;8.50;95.40
70074;DHT22;57445;51.058;3.698;2023-03-16T06:25:46;8.50;95.60
70074;DHT22;57445;51.058;3.698;2023-03-16T06:28:14;8.50;95.10
70074;DHT22;57445;51.058;3.698;2023-03-16T06:30:52;8.40;95.70
70074;DHT22;57445;51.058;3.698;2023-03-16T06:33:20;8.60;94.70
70074;DHT22;57445;51.058;3.698;2023-03-16T06:35:53;8.70;94.90
70074;DHT22;57445;51.058;3.698;2023-03-16T06:38:20;8.90;94.00
70074;DHT22;57445;51.058;3.698;2023-03-16T06:40:51;8.90;94.20
70074;DHT22;57445;51.058;3.698;2023-03-16T06:43:23;8.90;94.50
70074;DHT22;57445;51.058;3.698;2023-03-16T06:45:52;8.80;94.10
70074;DHT22;57445;51.058;3.698;2023-03-16T06:48:20;8.60;94.70
70074;DHT22;57445;51.058;3.698;2023-03-16T06:50:52;8.60;94.10
70074;DHT22;57445;51.058;3.698;2023-03-16T06:53:25;8.90;94.20
70074;DHT22;57445;51.058;3.698;2023-03-16T06:55:52;8.90;93.60
70074;DHT22;57445;51.058;3.698;2023-03-16T06:58:20;8.80;93.60
70074;DHT22;57445;51.058;3.698;2023-03-16T07:00:48;8.90;93.90
70074;DHT22;57445;51.058;3.698;2023-03-16T07:03:21;9.10;93.40
70074;DHT22;57445;51.058;3.698;2023-03-16T07:05:49;9.40;92.70
70074;DHT22;57445;51.058;3.698;2023-03-16T07:08:17;9.50;93.20
70074;DHT22;57445;51.058;3.698;2023-03-16T07:10:44;9.30;93.40
70074;DHT22;57445;51.058;3.698;2023-03-16T07:13:16;9.30;92.80
70074;DHT22;57445;51.058;3.698;2023-03-16T07:15:44;9.50;92.50
70074;DHT22;57445;51.058;3.698;2023-03-16T07:18:17;9.80;91.80
70074;DHT22;57445;51.058;3.698;2023-03-16T07:20:46;9.70;91.90
70074;DHT22;57445;51.058;3.698;2023-03-16T07:23:14;10.00;91.40
70074;DHT22;57445;51.058;3.698;2023-03-16T07:25:41;10.00;91.10
70074;DHT22;57445;51.058;3.698;2023-03-16T07:28:10;9.90;91.40
70074;DHT22;57445;51.058;3.698;2023-03-16T07:30:37;10.20;91.20
70074;DHT22;57445;51.058;3.698;2023-03-16T07:33:05;10.30;91.30
70074;DHT22;57445;51.058;3.698;2023-03-16T07:35:33;10.50;90.50
70074;DHT22;57445;51.058;3.698;2023-03-16T07:38:06;10.40;90.70
70074;DHT22;57445;51.058;3.698;2023-03-16T07:40:40;10.30;90.60
70074;DHT22;57445;51.058;3.698;2023-03-16T07:43:13;10.00;90.80
70074;DHT22;57445;51.058;3.698;2023-03-16T07:45:40;10.30;90.00
70074;DHT22;57445;51.058;3.698;2023-03-16T07:48:16;10.30;89.90
70074;DHT22;57445;51.058;3.698;2023-03-16T07:50:48;10.20;90.30
70074;DHT22;57445;51.058;3.698;2023-03-16T07:53:21;10.30;90.10
70074;DHT22;57445;51.058;3.698;2023-03-16T07:55:53;10.40;90.00
70074;DHT22;57445;51.058;3.698;2023-03-16T07:58:25;10.50;90.10
70074;DHT22;57445;51.058;3.698;2023-03-16T08:00:55;10.50;89.90
70074;DHT22;57445;51.058;3.698;2023-03-16T08:03:23;10.40;89.20
70074;DHT22;57445;51.058;3.698;2023-03-16T08:05:51;10.50;88.90
70074;DHT22;57445;51.058;3.698;2023-03-16T08:08:22;10.60;88.20
70074;DHT22;57445;51.058;3.698;2023-03-16T08:10:50;10.60;89.80
70074;DHT22;57445;51.058;3.698;2023-03-16T08:13:18;10.80;86.50
70074;DHT22;57445;51.058;3.698;2023-03-16T08:15:52;10.90;87.40
70074;DHT22;57445;51.058;3.698;2023-03-16T08:18:28;11.20;86.10
70074;DHT22;57445;51.058;3.698;2023-03-16T08:20:56;11.10;85.60
70074;DHT22;57445;51.058;3.698;2023-03-16T08:23:27;11.30;85.80
70074;DHT22;57445;51.058;3.698;2023-03-16T08:25:56;11.40;84.50
70074;DHT22;57445;51.058;3.698;2023-03-16T08:28:30;11.30;85.00
70074;DHT22;57445;51.058;3.698;2023-03-16T08:30:58;11.50;84.90
70074;DHT22;57445;51.058;3.698;2023-03-16T08:33:26;11.70;83.10
70074;DHT22;57445;51.058;3.698;2023-03-16T08:35:54;11.50;83.70
70074;DHT22;57445;51.058;3.698;2023-03-16T08:38:22;11.30;84.90
70074;DHT22;57445;51.058;3.698;2023-03-16T08:40:56;11.50;83.40
70074;DHT22;57445;51.058;3.698;2023-03-16T08:43:24;11.90;83.00
70074;DHT22;57445;51.058;3.698;2023-03-16T08:45:57;11.90;81.40
70074;DHT22;57445;51.058;3.698;2023-03-16T08:48:25;11.60;82.70
70074;DHT22;57445;51.058;3.698;2023-03-16T08:51:01;11.50;84.00
70074;DHT22;57445;51.058;3.698;2023-03-16T08:53:33;11.50;84.10
70074;DHT22;57445;51.058;3.698;2023-03-16T08:56:04;11.50;82.50
70074;DHT22;57445;51.058;3.698;2023-03-16T08:58:33;11.30;83.50
70074;DHT22;57445;51.058;3.698;2023-03-16T09:01:06;11.60;84.60
70074;DHT22;57445;51.058;3.698;2023-03-16T09:03:39;11.90;82.60
70074;DHT22;57445;51.058;3.698;2023-03-16T09:06:10;12.30;80.90
70074;DHT22;57445;51.058;3.698;2023-03-16T09:08:39;12.20;79.80
70074;DHT22;57445;51.058;3.698;2023-03-16T09:11:10;12.20;80.70
70074;DHT22;57445;51.058;3.698;2023-03-16T09:13:44;12.00;80.10
70074;DHT22;57445;51.058;3.698;2023-03-16T09:16:17;11.90;81.10
70074;DHT22;57445;51.058;3.698;2023-03-16T09:18:45;12.20;80.20
70074;DHT22;57445;51.058;3.698;2023-03-16T09:21:17;11.90;81.00
70074;DHT22;57445;51.058;3.698;2023-03-16T09:23:45;12.10;81.00
70074;DHT22;57445;51.058;3.698;2023-03-16T09:26:19;12.10;81.70
70074;DHT22;57445;51.058;3.698;2023-03-16T09:28:47;12.60;79.00
70074;DHT22;57445;51.058;3.698;2023-03-16T09:31:16;12.60;78.10
70074;DHT22;57445;51.058;3.698;2023-03-16T09:33:45;12.40;79.40
70074;DHT22;57445;51.058;3.698;2023-03-16T09:36:13;12.50;79.50
70074;DHT22;57445;51.058;3.698;2023-03-16T09:38:46;12.70;79.10
70074;DHT22;57445;51.058;3.698;2023-03-16T09:41:28;13.10;78.30
70074;DHT22;57445;51.058;3.698;2023-03-16T09:44:08;13.50;76.60
70074;DHT22;57445;51.058;3.698;2023-03-16T09:46:40;13.20;76.80
70074;DHT22;57445;51.058;3.698;2023-03-16T09:49:12;13.30;75.30
70074;DHT22;57445;51.058;3.698;2023-03-16T09:51:47;13.20;75.10
70074;DHT22;57445;51.058;3.698;2023-03-16T09:54:28;13.10;75.20
70074;DHT22;57445;51.058;3.698;2023-03-16T09:57:01;13.40;75.70
70074;DHT22;57445;51.058;3.698;2023-03-16T09:59:30;13.50;74.30
70074;DHT22;57445;51.058;3.698;2023-03-16T10:02:09;13.70;74.30
70074;DHT22;57445;51.058;3.698;2023-03-16T10:04:45;13.90;73.00
70074;DHT22;57445;51.058;3.698;2023-03-16T10:07:31;14.10;72.10
70074;DHT22;57445;51.058;3.698;2023-03-16T10:10:20;14.30;71.50
70074;DHT22;57445;51.058;3.698;2023-03-16T10:12:53;14.50;70.70
70074;DHT22;57445;51.058;3.698;2023-03-16T10:15:26;14.80;68.50
70074;DHT22;57445;51.058;3.698;2023-03-16T10:17:58;15.00;68.10
70074;DHT22;57445;51.058;3.698;2023-03-16T10:20:34;14.60;69.70
70074;DHT22;57445;51.058;3.698;2023-03-16T10:23:12;14.50;69.90
70074;DHT22;57445;51.058;3.698;2023-03-16T10:25:46;14.70;68.60
70074;DHT22;57445;51.058;3.698;2023-03-16T10:28:21;14.70;68.00
70074;DHT22;57445;51.058;3.698;2023-03-16T10:30:56;14.70;68.20
70074;DHT22;57445;51.058;3.698;2023-03-16T10:33:26;14.90;67.70
70074;DHT22;57445;51.058;3.698;2023-03-16T10:36:02;15.00;66.90
70074;DHT22;57445;51.058;3.698;2023-03-16T10:38:39;15.30;65.40
70074;DHT22;57445;51.058;3.698;2023-03-16T10:41:19;15.40;65.20
70074;DHT22;57445;51.058;3.698;2023-03-16T10:43:51;15.20;66.10
70074;DHT22;57445;51.058;3.698;2023-03-16T10:46:19;14.80;65.90
70074;DHT22;57445;51.058;3.698;2023-03-16T10:48:51;14.80;66.70
70074;DHT22;57445;51.058;3.698;2023-03-16T10:51:24;14.80;66.30
70074;DHT22;57445;51.058;3.698;2023-03-16T10:54:06;14.50;66.90
70074;DHT22;57445;51.058;3.698;2023-03-16T10:56:41;14.50;67.00
70074;DHT22;57445;51.058;3.698;2023-03-16T10:59:26;14.70;66.90
70074;DHT22;57445;51.058;3.698;2023-03-16T11:02:01;14.70;65.80
70074;DHT22;57445;51.058;3.698;2023-03-16T11:04:35;14.80;66.20
70074;DHT22;57445;51.058;3.698;2023-03-16T11:07:06;14.70;65.80
70074;DHT22;57445;51.058;3.698;2023-03-16T11:09:40;14.40;66.70
70074;DHT22;57445;51.058;3.698;2023-03-16T11:12:13;14.40;68.40
70074;DHT22;57445;51.058;3.698;2023-03-16T11:14:46;14.60;67.60
70074;DHT22;57445;51.058;3.698;2023-03-16T11:17:26;14.70;67.90
70074;DHT22;57445;51.058;3.698;2023-03-16T11:20:02;14.90;66.90
70074;DHT22;57445;51.058;3.698;2023-03-16T11:22:45;15.30;66.20
70074;DHT22;57445;51.058;3.698;2023-03-16T11:25:23;15.30;66.40
70074;DHT22;57445;51.058;3.698;2023-03-16T11:28:05;15.30;66.00
70074;DHT22;57445;51.058;3.698;2023-03-16T11:30:40;15.20;65.10
70074;DHT22;57445;51.058;3.698;2023-03-16T11:33:13;14.90;66.40
70074;DHT22;57445;51.058;3.698;2023-03-16T11:35:46;15.00;65.20
70074;DHT22;57445;51.058;3.698;2023-03-16T11:38:25;15.10;66.10
70074;DHT22;57445;51.058;3.698;2023-03-16T11:40:58;15.20;65.90
70074;DHT22;57445;51.058;3.698;2023-03-16T11:43:42;15.50;64.90
70074;DHT22;57445;51.058;3.698;2023-03-16T11:46:14;15.10;64.50
70074;DHT22;57445;51.058;3.698;2023-03-16T11:48:52;15.30;64.80
70074;DHT22;57445;51.058;3.698;2023-03-16T11:51:34;15.40;65.50
70074;DHT22;57445;51.058;3.698;2023-03-16T11:54:20;15.40;65.10
70074;DHT22;57445;51.058;3.698;2023-03-16T11:56:57;15.60;63.90
70074;DHT22;57445;51.058;3.698;2023-03-16T11:59:54;15.40;63.90
70074;DHT22;57445;51.058;3.698;2023-03-16T12:02:41;15.50;64.50
70074;DHT22;57445;51.058;3.698;2023-03-16T12:05:45;15.60;64.70
70074;DHT22;57445;51.058;3.698;2023-03-16T12:08:43;15.40;64.20
70074;DHT22;57445;51.058;3.698;2023-03-16T12:11:18;15.30;64.50
70074;DHT22;57445;51.058;3.698;2023-03-16T12:13:59;15.30;65.30
70074;DHT22;57445;51.058;3.698;2023-03-16T12:16:34;15.60;64.10
70074;DHT22;57445;51.058;3.698;2023-03-16T12:19:16;15.70;63.80
70074;DHT22;57445;51.058;3.698;2023-03-16T12:22:02;15.80;63.60
70074;DHT22;57445;51.058;3.698;2023-03-16T12:24:37;15.40;64.00
70074;DHT22;57445;51.058;3.698;2023-03-16T12:27:13;15.40;63.50
70074;DHT22;57445;51.058;3.698;2023-03-16T12:29:54;15.30;64.30
70074;DHT22;57445;51.058;3.698;2023-03-16T12:32:34;15.60;64.30
70074;DHT22;57445;51.058;3.698;2023-03-16T12:35:23;15.90;63.60
70074;DHT22;57445;51.058;3.698;2023-03-16T12:38:02;15.80;63.40
70074;DHT22;57445;51.058;3.698;2023-03-16T12:40:45;15.60;63.90
70074;DHT22;57445;51.058;3.698;2023-03-16T12:43:30;15.70;63.60
70074;DHT22;57445;51.058;3.698;2023-03-16T12:46:06;15.60;63.70
70074;DHT22;57445;51.058;3.698;2023-03-16T12:48:41;15.60;64.20
70074;DHT22;57445;51.058;3.698;2023-03-16T12:51:17;15.90;63.70
70074;DHT22;57445;51.058;3.698;2023-03-16T12:53:53;15.80;62.70
70074;DHT22;57445;51.058;3.698;2023-03-16T12:56:30;15.90;63.10
70074;DHT22;57445;51.058;3.698;2023-03-16T12:58:59;15.70;63.50
70074;DHT22;57445;51.058;3.698;2023-03-16T13:01:37;15.70;62.60
70074;DHT22;57445;51.058;3.698;2023-03-16T13:04:10;15.80;62.00
70074;DHT22;57445;51.058;3.698;2023-03-16T13:06:45;15.80;64.00
70074;DHT22;57445;51.058;3.698;2023-03-16T13:09:17;15.90;62.80
70074;DHT22;57445;51.058;3.698;2023-03-16T13:11:48;15.90;63.10
70074;DHT22;57445;51.058;3.698;2023-03-16T13:14:32;15.90;62.60
70074;DHT22;57445;51.058;3.698;2023-03-16T13:17:23;16.10;62.20
70074;DHT22;57445;51.058;3.698;2023-03-16T13:22:45;16.20;60.60
70074;DHT22;57445;51.058;3.698;2023-03-16T13:25:22;16.30;60.50
70074;DHT22;57445;51.058;3.698;2023-03-16T13:27:58;16.20;60.90
70074;DHT22;57445;51.058;3.698;2023-03-16T13:30:28;16.20;61.80
70074;DHT22;57445;51.058;3.698;2023-03-16T13:33:06;16.30;61.10
70074;DHT22;57445;51.058;3.698;2023-03-16T13:35:45;16.30;60.60
70074;DHT22;57445;51.058;3.698;2023-03-16T13:38:21;16.30;61.00
70074;DHT22;57445;51.058;3.698;2023-03-16T13:40:54;16.60;60.00
70074;DHT22;57445;51.058;3.698;2023-03-16T13:43:28;16.80;59.70
70074;DHT22;57445;51.058;3.698;2023-03-16T13:46:12;16.60;58.80
70074;DHT22;57445;51.058;3.698;2023-03-16T13:48:41;16.40;59.30
70074;DHT22;57445;51.058;3.698;2023-03-16T13:51:13;16.70;59.90
70074;DHT22;57445;51.058;3.698;2023-03-16T13:53:46;16.60;58.60
70074;DHT22;57445;51.058;3.698;2023-03-16T13:56:17;16.40;58.70
70074;DHT22;57445;51.058;3.698;2023-03-16T13:58:49;16.50;59.50
70074;DHT22;57445;51.058;3.698;2023-03-16T14:01:25;16.40;59.30
70074;DHT22;57445;51.058;3.698;2023-03-16T14:04:00;16.50;58.30
70074;DHT22;57445;51.058;3.698;2023-03-16T14:06:34;16.50;58.90
70074;DHT22;57445;51.058;3.698;2023-03-16T14:09:04;16.50;58.30
70074;DHT22;57445;51.058;3.698;2023-03-16T14:11:37;16.80;57.50
70074;DHT22;57445;51.058;3.698;2023-03-16T14:14:13;16.80;57.40
70074;DHT22;57445;51.058;3.698;2023-03-16T14:16:45;16.80;57.30
70074;DHT22;57445;51.058;3.698;2023-03-16T14:19:16;16.90;57.20
70074;DHT22;57445;51.058;3.698;2023-03-16T14:21:45;16.90;57.30
70074;DHT22;57445;51.058;3.698;2023-03-16T14:24:26;16.70;57.30
70074;DHT22;57445;51.058;3.698;2023-03-16T14:27:14;16.80;56.50
70074;DHT22;57445;51.058;3.698;2023-03-16T14:29:44;16.90;56.40
70074;DHT22;57445;51.058;3.698;2023-03-16T14:32:23;17.00;56.40
70074;DHT22;57445;51.058;3.698;2023-03-16T14:35:12;16.80;57.00
70074;DHT22;57445;51.058;3.698;2023-03-16T14:37:44;16.50;56.90
70074;DHT22;57445;51.058;3.698;2023-03-16T14:40:25;16.40;56.80
70074;DHT22;57445;51.058;3.698;2023-03-16T14:42:55;16.50;57.40
70074;DHT22;57445;51.058;3.698;2023-03-16T14:45:29;16.70;56.50
70074;DHT22;57445;51.058;3.698;2023-03-16T14:48:02;16.60;56.50
70074;DHT22;57445;51.058;3.698;2023-03-16T14:50:35;16.60;56.30
70074;DHT22;57445;51.058;3.698;2023-03-16T14:53:03;16.70;56.30
70074;DHT22;57445;51.058;3.698;2023-03-16T14:55:37;16.90;56.90
70074;DHT22;57445;51.058;3.698;2023-03-16T14:58:10;17.10;55.70
70074;DHT22;57445;51.058;3.698;2023-03-16T15:00:42;16.70;56.40
70074;DHT22;57445;51.058;3.698;2023-03-16T15:03:15;16.70;57.70
70074;DHT22;57445;51.058;3.698;2023-03-16T15:05:49;16.70;57.00
70074;DHT22;57445;51.058;3.698;2023-03-16T15:08:23;16.80;56.60
70074;DHT22;57445;51.058;3.698;2023-03-16T15:10:54;16.80;57.70
70074;DHT22;57445;51.058;3.698;2023-03-16T15:13:24;16.90;57.20
70074;DHT22;57445;51.058;3.698;2023-03-16T15:16:22;16.90;56.60
70074;DHT22;57445;51.058;3.698;2023-03-16T15:18:54;16.50;57.70
70074;DHT22;57445;51.058;3.698;2023-03-16T15:21:26;16.60;57.00
70074;DHT22;57445;51.058;3.698;2023-03-16T15:23:55;16.40;56.80
70074;DHT22;57445;51.058;3.698;2023-03-16T15:26:27;16.20;57.30
70074;DHT22;57445;51.058;3.698;2023-03-16T15:28:56;16.40;57.00
70074;DHT22;57445;51.058;3.698;2023-03-16T15:31:29;16.10;57.80
70074;DHT22;57445;51.058;3.698;2023-03-16T15:33:56;15.80;59.30
70074;DHT22;57445;51.058;3.698;2023-03-16T15:36:28;15.60;59.30
70074;DHT22;57445;51.058;3.698;2023-03-16T15:38:57;15.40;59.50
70074;DHT22;57445;51.058;3.698;2023-03-16T15:41:28;15.70;59.60
70074;DHT22;57445;51.058;3.698;2023-03-16T15:44:00;16.00;58.70
70074;DHT22;57445;51.058;3.698;2023-03-16T15:46:28;15.80;59.70
70074;DHT22;57445;51.058;3.698;2023-03-16T15:49:01;15.90;59.40
70074;DHT22;57445;51.058;3.698;2023-03-16T15:51:33;15.80;59.10
70074;DHT22;57445;51.058;3.698;2023-03-16T15:54:03;15.50;59.90
70074;DHT22;57445;51.058;3.698;2023-03-16T15:56:34;15.30;60.20
70074;DHT22;57445;51.058;3.698;2023-03-16T15:59:12;15.30;60.00
70074;DHT22;57445;51.058;3.698;2023-03-16T16:01:44;15.30;60.60
70074;DHT22;57445;51.058;3.698;2023-03-16T16:04:18;15.40;59.90
70074;DHT22;57445;51.058;3.698;2023-03-16T16:06:48;15.60;59.40
70074;DHT22;57445;51.058;3.698;2023-03-16T16:09:17;15.60;59.20
70074;DHT22;57445;51.058;3.698;2023-03-16T16:11:50;15.70;59.00
70074;DHT22;57445;51.058;3.698;2023-03-16T16:14:24;15.80;58.80
70074;DHT22;57445;51.058;3.698;2023-03-16T16:16:57;15.60;59.20